Time;durP1;ratioP1;P1;durP2;ratioP2;P2;SDS_P1;SDS_P2;PMS_P1;PMS_P2;Temp;Humidity;BMP_temperature;BMP_pressure;BME280_temperature;BME280_humidity;BME280_pressure;Samples;Min_cycle;Max_cycle;Signal;HPM_P1;HPM_P2
2022/11/26 00:03:46;;;;;;;1.83;1.73;;;;;;;19.55;52.07;97408.19;10539370;28;20044;-55
2022/11/26 00:09:14;;;;;;;2.70;1.70;;;;;;;19.53;52.00;97405.00;10538952;28;20554;-56
2022/11/26 00:14:35;;;;;;;1.70;1.60;;;;;;;19.53;51.97;97409.63;10539089;28;20051;-55
2022/11/26 00:19:54;;;;;;;2.30;1.77;;;;;;;19.52;51.91;97408.81;10552532;28;20044;-55
2022/11/26 00:25:19;;;;;;;1.70;1.50;;;;;;;19.51;51.83;97419.94;10538353;28;20101;-56
2022/11/26 00:30:39;;;;;;;2.60;1.60;;;;;;;19.50;51.94;97427.25;10538524;28;20052;-55
2022/11/26 00:36:02;;;;;;;2.17;1.85;;;;;;;19.47;51.87;97424.34;10538911;28;20063;-55
2022/11/26 00:41:24;;;;;;;2.10;1.90;;;;;;;19.46;51.95;97436.25;10538692;28;20061;-55
2022/11/26 00:46:43;;;;;;;1.95;1.77;;;;;;;19.46;51.78;97452.47;10537935;28;20056;-55
2022/11/26 00:52:04;;;;;;;2.83;1.65;;;;;;;19.44;51.87;97444.66;10552100;28;20396;-55
2022/11/26 00:57:24;;;;;;;1.83;1.73;;;;;;;19.43;51.67;97448.50;10523393;28;20121;-55
2022/11/26 01:02:44;;;;;;;2.22;1.70;;;;;;;19.42;51.76;97446.88;10538245;28;20055;-55
2022/11/26 01:08:31;;;;;;;2.50;1.67;;;;;;;19.40;51.61;97449.09;10551738;28;20426;-55
2022/11/26 01:13:53;;;;;;;2.28;1.70;;;;;;;19.39;51.82;97458.31;10522932;28;20073;-55
2022/11/26 01:19:14;;;;;;;1.80;1.70;;;;;;;19.37;51.76;97463.22;10551296;28;20437;-55
2022/11/26 01:24:33;;;;;;;1.98;1.70;;;;;;;19.36;51.77;97467.03;10537761;28;20059;-55
2022/11/26 01:29:52;;;;;;;1.65;1.55;;;;;;;19.34;51.84;97464.63;10551221;28;20041;-55
2022/11/26 01:35:12;;;;;;;1.65;1.40;;;;;;;19.33;51.71;97476.53;10538482;28;20056;-55
2022/11/26 01:40:44;;;;;;;1.58;1.48;;;;;;;19.33;51.91;97486.56;10544313;28;20491;-55
2022/11/26 01:46:12;;;;;;;2.08;1.40;;;;;;;19.31;51.82;97488.78;10544790;28;20059;-56
2022/11/26 01:51:32;;;;;;;1.65;1.55;;;;;;;19.29;51.79;97491.78;10544778;28;20052;-55
2022/11/26 01:56:54;;;;;;;1.38;1.27;;;;;;;19.28;51.78;97487.47;10528686;28;20454;-56
2022/11/26 02:02:13;;;;;;;1.58;1.30;;;;;;;19.27;51.84;97493.97;10528649;28;20059;-55
2022/11/26 02:07:34;;;;;;;1.60;1.35;;;;;;;19.26;51.85;97507.78;10543828;28;20117;-55
2022/11/26 02:12:54;;;;;;;1.90;1.50;;;;;;;19.25;51.79;97501.59;10543543;28;20051;-55
2022/11/26 02:18:13;;;;;;;1.48;1.38;;;;;;;19.24;51.78;97504.59;10556887;28;20035;-56
2022/11/26 02:23:46;;;;;;;1.60;1.50;;;;;;;19.22;51.79;97512.22;10543432;28;20051;-56
2022/11/26 02:29:18;;;;;;;1.77;1.25;;;;;;;19.20;51.80;97512.50;10556637;28;20044;-55
2022/11/26 02:34:44;;;;;;;1.90;1.70;;;;;;;19.20;51.78;97531.41;10542395;28;20545;-55
2022/11/26 02:40:06;;;;;;;2.40;1.40;;;;;;;19.18;51.75;97533.63;10542788;28;20056;-55
2022/11/26 02:45:36;;;;;;;1.30;1.20;;;;;;;19.16;51.64;97536.63;10555996;28;20044;-55
2022/11/26 02:51:02;;;;;;;1.38;1.27;;;;;;;19.16;51.61;97546.63;10526722;28;20561;-53
2022/11/26 02:56:25;;;;;;;1.40;1.30;;;;;;;19.13;51.71;97544.53;10542147;28;20089;-55
2022/11/26 03:01:51;;;;;;;1.50;1.40;;;;;;;19.13;51.98;97548.03;10525834;28;20059;-55
2022/11/26 03:07:13;;;;;;;1.30;1.20;;;;;;;19.13;51.73;97553.44;10541364;28;20109;-55
2022/11/26 03:12:32;;;;;;;1.48;1.38;;;;;;;19.10;51.76;97556.75;10526085;28;20511;-55
2022/11/26 03:17:52;;;;;;;1.27;1.17;;;;;;;19.10;51.75;97562.13;10541074;28;20056;-55
2022/11/26 03:23:11;;;;;;;1.50;1.30;;;;;;;19.09;51.68;97565.13;10541139;28;20074;-55
2022/11/26 03:28:31;;;;;;;1.40;1.30;;;;;;;19.07;51.62;97564.63;10540438;28;20052;-56
2022/11/26 03:33:50;;;;;;;1.55;1.45;;;;;;;19.07;51.72;97572.75;10540585;28;20055;-55
2022/11/26 03:39:10;;;;;;;1.40;1.30;;;;;;;19.05;51.61;97578.47;10553798;28;20044;-55
2022/11/26 03:44:29;;;;;;;1.38;1.10;;;;;;;19.04;51.48;97579.56;10553643;28;20051;-43
2022/11/26 03:49:49;;;;;;;1.40;1.30;;;;;;;19.03;51.55;97583.34;10553421;28;20036;-43
2022/11/26 03:55:09;;;;;;;1.33;1.23;;;;;;;19.01;51.67;97579.34;10539937;28;20048;-44
2022/11/26 04:00:28;;;;;;;1.30;1.20;;;;;;;19.02;51.52;97592.56;10538335;28;20416;-43
2022/11/26 04:05:49;;;;;;;1.40;1.30;;;;;;;19.00;51.61;97592.06;10539578;28;20403;-44
2022/11/26 04:11:08;;;;;;;1.30;1.17;;;;;;;18.99;51.59;97595.06;10539520;28;20056;-43
2022/11/26 04:16:27;;;;;;;1.73;1.30;;;;;;;18.99;51.67;97606.66;10538610;28;20051;-45
2022/11/26 04:21:46;;;;;;;1.65;1.30;;;;;;;18.96;51.60;97607.28;10536999;28;20052;-43
2022/11/26 04:27:06;;;;;;;1.23;1.13;;;;;;;18.95;51.57;97609.19;10538713;28;20056;-44
2022/11/26 04:32:25;;;;;;;1.33;1.20;;;;;;;18.94;51.64;97615.66;10552578;28;20418;-44
2022/11/26 04:37:45;;;;;;;1.55;1.30;;;;;;;18.92;51.57;97620.56;10552415;28;20051;-44
2022/11/26 04:43:04;;;;;;;1.55;1.42;;;;;;;18.92;51.61;97630.56;10538699;28;20052;-43
2022/11/26 04:48:23;;;;;;;1.50;1.20;;;;;;;18.91;51.39;97628.97;10537983;28;20064;-44
2022/11/26 04:53:43;;;;;;;1.30;1.10;;;;;;;18.90;51.50;97640.88;10538505;28;20058;-43
2022/11/26 04:59:02;;;;;;;1.27;1.15;;;;;;;18.88;51.55;97643.88;10537979;28;20063;-43
2022/11/26 05:04:21;;;;;;;1.40;1.30;;;;;;;18.87;51.46;97649.56;10538375;28;20422;-44
2022/11/26 05:09:41;;;;;;;1.20;1.10;;;;;;;18.87;51.53;97654.97;10553573;28;20036;-43
2022/11/26 05:15:00;;;;;;;1.15;1.08;;;;;;;18.86;51.54;97666.88;10546381;28;20105;-44
2022/11/26 05:20:20;;;;;;;1.25;1.05;;;;;;;18.84;51.43;97669.84;10557321;28;20441;-43
2022/11/26 05:25:39;;;;;;;1.60;1.30;;;;;;;18.83;51.48;97665.53;10545074;28;20494;-43
2022/11/26 05:31:00;;;;;;;0.95;0.95;;;;;;;18.81;51.49;97675.06;10545923;28;20056;-43
2022/11/26 05:36:20;;;;;;;1.15;1.05;;;;;;;18.80;51.45;97684.22;10545225;28;20060;-44
2022/11/26 05:41:39;;;;;;;1.10;1.00;;;;;;;18.79;51.40;97678.00;10545253;28;20048;-44
2022/11/26 05:46:59;;;;;;;1.05;0.98;;;;;;;18.78;51.46;97693.41;10558361;28;20040;-44
2022/11/26 05:52:18;;;;;;;1.05;1.00;;;;;;;18.76;51.53;97695.59;10544055;28;20051;-43
2022/11/26 05:57:38;;;;;;;1.25;1.10;;;;;;;18.75;51.54;97704.78;10544558;28;20056;-44
2022/11/26 06:02:57;;;;;;;1.10;1.00;;;;;;;18.74;51.55;97714.00;10544222;28;20051;-44
2022/11/26 06:08:17;;;;;;;1.20;1.10;;;;;;;18.73;51.55;97717.78;10544091;28;20059;-44
2022/11/26 06:13:36;;;;;;;1.40;1.13;;;;;;;18.72;51.53;97721.59;10544174;28;20051;-43
2022/11/26 06:18:57;;;;;;;1.10;1.00;;;;;;;18.72;51.53;97724.28;10555690;28;20036;-43
2022/11/26 06:24:17;;;;;;;1.00;1.00;;;;;;;18.70;51.41;97734.59;10556340;28;20040;-43
2022/11/26 06:29:36;;;;;;;1.10;1.00;;;;;;;18.70;51.56;97744.56;10542028;28;20051;-46
2022/11/26 06:34:56;;;;;;;1.08;0.98;;;;;;;18.69;51.70;97742.97;10542161;28;20048;-44
2022/11/26 06:40:18;;;;;;;0.85;0.85;;;;;;;18.68;51.63;97752.97;10542622;28;20391;-44
2022/11/26 06:45:38;;;;;;;1.15;1.05;;;;;;;18.67;51.55;97755.97;10542533;28;20097;-43
2022/11/26 06:51:04;;;;;;;1.23;1.00;;;;;;;18.66;51.71;97759.75;10542334;28;20048;-43
2022/11/26 06:56:24;;;;;;;1.00;1.00;;;;;;;18.65;51.64;97769.75;10540608;28;20055;-43
2022/11/26 07:01:44;;;;;;;1.10;1.00;;;;;;;18.65;51.56;97775.16;10505747;28;20052;-44
2022/11/26 07:07:03;;;;;;;1.80;1.10;;;;;;;18.65;51.51;97777.84;10498053;28;20421;-43
2022/11/26 07:12:22;;;;;;;0.82;0.80;;;;;;;18.66;51.59;97782.16;10497438;28;20078;-43
2022/11/26 07:17:42;;;;;;;1.38;1.05;;;;;;;18.66;51.38;97787.56;10496486;28;20048;-43
2022/11/26 07:23:03;;;;;;;1.10;1.00;;;;;;;18.67;51.45;97791.06;10511561;28;20040;-44
2022/11/26 07:28:22;;;;;;;1.13;0.95;;;;;;;18.67;51.44;97804.53;10496625;28;20053;-43
2022/11/26 07:33:44;;;;;;;1.27;1.00;;;;;;;18.68;51.36;97806.97;10495477;28;20499;-43
2022/11/26 07:39:03;;;;;;;1.05;0.90;;;;;;;18.68;51.34;97806.97;10509621;28;20043;-44
2022/11/26 07:44:22;;;;;;;1.02;1.00;;;;;;;18.70;51.26;97812.03;10495793;28;20404;-43
2022/11/26 07:49:42;;;;;;;1.67;0.90;;;;;;;18.72;51.28;97826.88;10494967;28;20052;-43
2022/11/26 07:55:01;;;;;;;1.13;1.02;;;;;;;18.74;51.34;97830.06;10497145;28;20053;-44
2022/11/26 08:00:21;;;;;;;1.17;1.00;;;;;;;18.75;51.46;97839.75;10519848;28;20056;-43
2022/11/26 08:05:42;;;;;;;0.90;0.90;;;;;;;18.77;51.50;97839.47;10531827;28;20412;-43
2022/11/26 08:11:04;;;;;;;2.38;1.10;;;;;;;18.80;51.59;97841.63;10482940;28;20123;-45
2022/11/26 08:16:24;;;;;;;0.90;0.90;;;;;;;18.82;51.57;97838.63;10510513;28;20093;-44
2022/11/26 08:21:43;;;;;;;2.10;1.00;;;;;;;18.85;51.63;97846.13;10496630;28;20053;-44
2022/11/26 08:27:03;;;;;;;0.93;0.90;;;;;;;18.86;51.54;97848.56;10496757;28;20057;-43
2022/11/26 08:32:23;;;;;;;7.07;1.10;;;;;;;18.90;51.79;97852.25;10496523;28;20069;-45
2022/11/26 08:37:42;;;;;;;2.00;0.98;;;;;;;18.93;51.78;97857.09;10497283;28;20056;-44
2022/11/26 08:43:02;;;;;;;0.93;0.90;;;;;;;18.96;51.64;97855.69;10496637;28;20060;-44
2022/11/26 08:48:22;;;;;;;4.47;1.05;;;;;;;19.00;51.75;97861.31;10504306;28;20071;-44
2022/11/26 08:53:42;;;;;;;3.03;0.93;;;;;;;19.01;51.98;97866.38;10505324;28;20049;-44
2022/11/26 08:59:02;;;;;;;7.45;1.80;;;;;;;19.04;52.04;97873.13;10516598;28;20423;-44
2022/11/26 09:04:21;;;;;;;2.90;1.50;;;;;;;19.06;52.17;97877.13;10546270;28;20074;-44
2022/11/26 09:09:41;;;;;;;8.00;1.50;;;;;;;19.10;52.33;97883.53;10559348;28;20036;-44
2022/11/26 09:15:01;;;;;;;3.95;1.27;;;;;;;19.13;52.55;97874.03;10543340;28;20136;-44
2022/11/26 09:20:20;;;;;;;3.67;1.20;;;;;;;19.16;52.59;97884.25;10545567;28;20059;-45
2022/11/26 09:25:40;;;;;;;1.90;1.10;;;;;;;19.20;52.44;97895.28;10545689;28;20056;-44
2022/11/26 09:31:00;;;;;;;4.28;1.30;;;;;;;19.20;51.08;97900.69;10544982;28;20063;-43
2022/11/26 09:36:19;;;;;;;3.40;1.15;;;;;;;19.23;51.31;97902.78;10545405;28;20051;-44
2022/11/26 09:41:48;;;;;;;3.35;1.10;;;;;;;19.27;51.10;97906.53;10544682;28;20048;-43
2022/11/26 09:47:15;;;;;;;4.15;1.42;;;;;;;19.27;51.10;97909.22;10543887;28;20518;-44
2022/11/26 09:52:56;;;;;;;3.90;1.50;;;;;;;19.29;50.85;97907.81;10540804;28;20048;-44
2022/11/26 09:58:28;;;;;;;2.90;1.25;;;;;;;19.34;50.94;97917.75;10538829;28;20117;-47
2022/11/26 10:03:48;;;;;;;2.95;1.40;;;;;;;19.36;51.08;97923.66;10540698;28;20443;-44
2022/11/26 10:09:38;;;;;;;2.25;1.23;;;;;;;19.40;51.08;97924.66;10541288;28;20052;-43
2022/11/26 10:15:11;;;;;;;3.45;2.15;;;;;;;19.36;47.70;97902.03;10541363;28;20056;-45
2022/11/26 10:20:44;;;;;;;5.82;1.75;;;;;;;19.37;48.91;97911.75;10541418;28;20102;-43
2022/11/26 10:26:08;;;;;;;8.82;3.55;;;;;;;19.39;47.11;97927.69;10528241;28;20101;-43
2022/11/26 10:31:31;;;;;;;4.78;3.22;;;;;;;19.11;42.81;97911.34;10527229;28;20056;-44
2022/11/26 10:36:50;;;;;;;4.55;2.97;;;;;;;19.16;45.80;97912.06;10543003;28;20056;-44
2022/11/26 10:42:17;;;;;;;9.30;3.90;;;;;;;19.20;44.22;97909.59;10542374;28;20048;-44
2022/11/26 10:47:37;;;;;;;6.07;3.40;;;;;;;19.28;46.23;97914.31;10541814;28;20056;-44
2022/11/26 10:53:04;;;;;;;7.28;3.10;;;;;;;19.34;46.66;97915.03;10542453;28;20059;-48
2022/11/26 10:58:29;;;;;;;5.80;2.95;;;;;;;19.40;47.32;97919.25;10526673;28;20113;-44
2022/11/26 11:03:57;;;;;;;6.97;3.08;;;;;;;19.45;47.68;97919.19;10541907;28;20052;-44
2022/11/26 11:09:36;;;;;;;5.65;2.83;;;;;;;19.50;48.26;97911.00;10540451;28;20052;-45
2022/11/26 11:15:17;;;;;;;7.10;2.95;;;;;;;19.53;49.52;97921.19;10541584;28;20052;-44
2022/11/26 11:20:39;;;;;;;4.60;2.88;;;;;;;19.47;45.75;97916.97;10539083;28;20410;-43
2022/11/26 11:26:08;;;;;;;19.42;5.45;;;;;;;19.51;48.14;97920.69;10541006;28;20051;-46
2022/11/26 11:31:28;;;;;;;7.13;3.30;;;;;;;19.55;49.24;97918.22;10525014;28;20495;-43
2022/11/26 11:37:02;;;;;;;8.25;3.63;;;;;;;19.59;50.28;97926.53;10539012;28;20036;-46
2022/11/26 11:42:28;;;;;;;6.03;2.80;;;;;;;19.63;50.88;97920.22;10540653;28;20063;-44
2022/11/26 11:47:51;;;;;;;7.43;3.17;;;;;;;19.66;50.62;97921.53;10525717;28;20102;-45
2022/11/26 11:53:38;;;;;;;9.93;3.00;;;;;;;19.68;51.46;97920.16;10539659;28;20546;-45
2022/11/26 11:59:19;;;;;;;9.18;2.63;;;;;;;19.70;51.84;97920.66;10539591;28;20056;-47
2022/11/26 12:04:39;;;;;;;8.77;3.38;;;;;;;19.73;52.17;97924.69;10539672;28;20098;-44
2022/11/26 12:10:12;;;;;;;11.30;2.85;;;;;;;19.77;52.45;97939.19;10538926;28;20556;-46
2022/11/26 12:15:43;;;;;;;6.55;2.65;;;;;;;19.78;52.50;97935.41;10539363;28;20457;-45
2022/11/26 12:21:07;;;;;;;11.75;3.20;;;;;;;19.81;53.12;97940.22;10535570;28;20044;-44
2022/11/26 12:26:36;;;;;;;8.25;3.08;;;;;;;19.83;53.53;97946.13;10539086;28;20059;-43
2022/11/26 12:32:05;;;;;;;7.22;2.85;;;;;;;19.85;53.76;97940.41;10523866;28;20052;-43
2022/11/26 12:37:31;;;;;;;7.95;3.17;;;;;;;19.88;53.76;97951.44;10539093;28;20052;-44
2022/11/26 12:42:54;;;;;;;8.75;3.00;;;;;;;19.92;53.32;97946.25;10523916;28;20048;-44
2022/11/26 12:48:19;;;;;;;5.75;2.50;;;;;;;19.91;49.16;97948.13;10538917;28;20105;-43
2022/11/26 12:53:46;;;;;;;3.70;2.00;;;;;;;19.76;43.40;97940.31;10538866;28;20048;-43
2022/11/26 12:59:18;;;;;;;7.13;2.53;;;;;;;19.81;47.10;97940.22;10523178;28;20067;-45
2022/11/26 13:04:38;;;;;;;4.53;2.22;;;;;;;19.85;47.51;97940.41;10522911;28;20052;-44
2022/11/26 13:10:03;;;;;;;8.75;2.53;;;;;;;19.91;47.89;97947.34;10551905;28;20044;-45
2022/11/26 13:15:39;;;;;;;8.40;2.20;;;;;;;19.93;47.92;97951.38;10538242;28;20055;-45
2022/11/26 13:21:11;;;;;;;5.50;2.55;;;;;;;19.99;47.93;97943.13;10534243;28;20051;-45
2022/11/26 13:26:37;;;;;;;5.63;2.00;;;;;;;20.03;48.24;97946.84;10496589;28;20052;-44
2022/11/26 13:32:24;;;;;;;3.65;2.20;;;;;;;20.02;48.52;97956.06;10484659;28;20044;-45
2022/11/26 13:38:18;;;;;;;5.45;2.35;;;;;;;20.05;48.74;97955.47;10517046;28;20434;-44
2022/11/26 13:44:10;;;;;;;3.67;2.13;;;;;;;20.07;48.91;97956.78;10488278;28;20056;-45
2022/11/26 13:49:31;;;;;;;5.55;2.40;;;;;;;20.09;49.01;97959.16;10503181;28;20052;-45
2022/11/26 13:55:05;;;;;;;4.97;2.08;;;;;;;20.11;45.52;97970.50;10502661;28;20044;-44
2022/11/26 14:00:28;;;;;;;4.70;1.90;;;;;;;20.17;47.33;97971.19;10508260;28;20064;-45
2022/11/26 14:05:50;;;;;;;5.43;1.85;;;;;;;20.18;47.76;97973.63;10502087;28;20063;-45
2022/11/26 14:11:11;;;;;;;4.97;1.80;;;;;;;20.21;48.10;97985.72;10515487;28;20075;-45
2022/11/26 14:16:59;;;;;;;6.93;2.20;;;;;;;20.22;48.05;97982.75;10486826;28;20420;-45
2022/11/26 14:22:19;;;;;;;4.50;2.03;;;;;;;20.24;48.47;97996.78;10541364;28;20056;-46
2022/11/26 14:27:42;;;;;;;6.07;2.05;;;;;;;20.26;48.43;97997.28;10543451;28;20060;-46
2022/11/26 14:33:28;;;;;;;5.63;1.70;;;;;;;20.26;48.63;97994.56;10527478;28;20059;-45
2022/11/26 14:39:13;;;;;;;4.93;2.20;;;;;;;20.30;49.12;98000.97;10542898;28;20063;-48
2022/11/26 14:44:32;;;;;;;7.60;1.88;;;;;;;20.32;49.38;98003.38;10541809;28;20051;-45
2022/11/26 14:50:02;;;;;;;4.40;1.92;;;;;;;20.33;49.66;98007.72;10555808;28;20104;-44
2022/11/26 14:55:24;;;;;;;3.85;1.70;;;;;;;20.35;49.96;98014.44;10541908;28;20125;-45
2022/11/26 15:00:44;;;;;;;4.70;1.90;;;;;;;20.38;50.02;98012.22;10526402;28;20059;-44
2022/11/26 15:06:03;;;;;;;4.00;2.03;;;;;;;20.41;50.24;98012.44;10539476;28;20548;-46
2022/11/26 15:11:23;;;;;;;8.48;2.35;;;;;;;20.43;50.65;98021.03;10541604;28;20117;-45
2022/11/26 15:16:42;;;;;;;5.82;1.60;;;;;;;20.49;50.88;98010.94;10521769;28;20040;-45
2022/11/26 15:22:06;;;;;;;3.55;1.70;;;;;;;20.49;50.93;98017.13;10533315;28;20048;-45
2022/11/26 15:27:36;;;;;;;6.00;2.00;;;;;;;20.52;50.92;98031.97;10541096;28;20055;-46
2022/11/26 15:33:11;;;;;;;4.93;1.63;;;;;;;20.54;51.10;98029.75;10540590;28;20048;-45
2022/11/26 15:38:58;;;;;;;2.70;1.63;;;;;;;20.57;51.63;98025.66;10540659;28;20411;-48
2022/11/26 15:44:22;;;;;;;4.20;1.80;;;;;;;20.57;51.66;98031.09;10540476;28;20048;-45
2022/11/26 15:49:48;;;;;;;4.82;2.25;;;;;;;20.58;52.03;98025.38;10553632;28;20052;-47
2022/11/26 15:55:18;;;;;;;3.97;2.20;;;;;;;20.61;52.12;98027.50;10552471;28;20097;-48
2022/11/26 16:00:40;;;;;;;3.50;1.95;;;;;;;20.64;52.33;98031.50;10524111;28;20427;-46
2022/11/26 16:06:00;;;;;;;3.53;1.60;;;;;;;20.67;52.67;98036.31;10537758;28;20499;-44
2022/11/26 16:11:20;;;;;;;6.32;1.90;;;;;;;20.68;52.83;98033.31;10527235;28;20056;-45
2022/11/26 16:16:39;;;;;;;4.97;1.95;;;;;;;20.69;52.91;98039.53;10497335;28;20060;-46
2022/11/26 16:22:02;;;;;;;2.50;1.80;;;;;;;20.70;53.09;98033.03;10530879;28;20410;-45
2022/11/26 16:27:21;;;;;;;3.65;1.80;;;;;;;20.70;53.12;98036.53;10539102;28;20055;-45
2022/11/26 16:32:40;;;;;;;3.08;1.77;;;;;;;20.69;53.17;98034.91;10552246;28;20044;-44
2022/11/26 16:38:01;;;;;;;4.07;1.60;;;;;;;20.70;53.36;98027.59;10552446;28;20033;-45
2022/11/26 16:43:21;;;;;;;4.75;1.80;;;;;;;20.69;53.61;98029.50;10538542;28;20055;-44
2022/11/26 16:48:41;;;;;;;5.03;2.28;;;;;;;20.68;52.15;98022.50;10537943;28;20111;-45
2022/11/26 16:54:01;;;;;;;6.47;1.98;;;;;;;20.68;52.51;98021.66;10538271;28;20052;-46
2022/11/26 16:59:24;;;;;;;4.80;1.70;;;;;;;20.67;52.67;98022.78;10537793;28;20064;-46
2022/11/26 17:04:45;;;;;;;12.45;2.60;;;;;;;20.60;47.58;98044.03;10523232;28;20048;-45
2022/11/26 17:10:05;;;;;;;5.25;2.50;;;;;;;20.44;47.41;98043.50;10482641;28;20057;-45
2022/11/26 17:15:25;;;;;;;4.45;2.47;;;;;;;20.50;49.71;98048.53;10462921;28;20048;-46
2022/11/26 17:20:44;;;;;;;4.22;2.20;;;;;;;20.55;50.28;98050.31;10526013;28;20506;-47
2022/11/26 17:26:22;;;;;;;3.60;2.15;;;;;;;20.57;50.69;98048.13;10559266;28;20051;-46
2022/11/26 17:31:42;;;;;;;5.35;2.15;;;;;;;20.57;50.94;98058.94;10528757;28;20059;-45
2022/11/26 17:37:01;;;;;;;3.10;1.80;;;;;;;20.58;51.19;98055.16;10544861;28;20048;-45
2022/11/26 17:42:22;;;;;;;3.13;1.73;;;;;;;20.58;51.17;98065.16;10545108;28;20047;-47
2022/11/26 17:47:42;;;;;;;6.05;1.83;;;;;;;20.57;50.80;98066.28;10543893;28;20055;-47
2022/11/26 17:53:02;;;;;;;3.05;1.60;;;;;;;20.58;51.24;98073.28;10544625;28;20055;-45
2022/11/26 17:58:22;;;;;;;4.07;1.75;;;;;;;20.55;51.25;98077.41;10544215;28;20063;-45
2022/11/26 18:03:42;;;;;;;1.92;1.60;;;;;;;20.55;51.62;98074.69;10544400;28;20070;-45
2022/11/26 18:09:02;;;;;;;3.47;1.60;;;;;;;20.55;51.74;98082.81;10501938;28;20053;-46
2022/11/26 18:14:22;;;;;;;2.63;1.65;;;;;;;20.53;51.97;98088.53;10515223;28;20045;-46
2022/11/26 18:19:42;;;;;;;2.75;1.50;;;;;;;20.53;52.00;98091.22;10515013;28;20059;-45
2022/11/26 18:25:02;;;;;;;3.95;1.70;;;;;;;20.52;52.04;98091.53;10528198;28;20056;-47
2022/11/26 18:30:22;;;;;;;3.25;1.48;;;;;;;20.51;51.71;98100.75;10543419;28;20059;-44
2022/11/26 18:35:43;;;;;;;3.80;1.52;;;;;;;20.50;51.88;98109.97;10542227;28;20059;-42
2022/11/26 18:41:04;;;;;;;2.60;1.58;;;;;;;20.48;51.96;98101.34;10542244;28;20094;-42
2022/11/26 18:46:23;;;;;;;2.75;1.50;;;;;;;20.48;51.99;98104.06;10542403;28;20418;-44
2022/11/26 18:51:43;;;;;;;3.97;1.40;;;;;;;20.47;52.05;98107.88;10542012;28;20056;-53
2022/11/26 18:57:03;;;;;;;3.22;1.80;;;;;;;20.45;52.29;98110.88;10541636;28;20064;-46
2022/11/26 19:02:25;;;;;;;1.73;1.20;;;;;;;20.46;52.88;98107.06;10508753;28;20118;-47
2022/11/26 19:07:44;;;;;;;5.05;1.52;;;;;;;20.45;52.82;98118.19;10498267;28;20139;-48
2022/11/26 19:13:04;;;;;;;2.38;1.33;;;;;;;20.44;53.01;98119.28;10498622;28;20044;-44
2022/11/26 19:18:24;;;;;;;3.38;1.42;;;;;;;20.42;52.98;98118.78;10491263;28;20053;-43
2022/11/26 19:23:43;;;;;;;3.25;1.70;;;;;;;20.42;52.86;98129.59;10498125;28;20048;-42
2022/11/26 19:29:05;;;;;;;5.78;1.80;;;;;;;20.41;53.29;98126.09;10497173;28;20530;-45
2022/11/26 19:34:24;;;;;;;6.10;1.80;;;;;;;20.40;53.04;98132.59;10497124;28;20093;-44
2022/11/26 19:39:44;;;;;;;4.50;1.77;;;;;;;20.40;53.19;98131.81;10497554;28;20131;-47
2022/11/26 19:45:04;;;;;;;5.93;1.83;;;;;;;20.38;53.18;98129.41;10510746;28;20067;-45
2022/11/26 19:50:24;;;;;;;7.70;2.13;;;;;;;20.37;53.50;98135.13;10496900;28;20056;-45
2022/11/26 19:55:43;;;;;;;5.00;2.17;;;;;;;20.37;53.60;98141.34;10486080;28;20106;-45
2022/11/26 20:01:08;;;;;;;3.20;2.10;;;;;;;20.34;53.61;98140.00;10495923;28;20060;-46
2022/11/26 20:06:29;;;;;;;5.47;2.05;;;;;;;20.34;53.56;98133.78;10507811;28;20032;-44
2022/11/26 20:11:48;;;;;;;4.25;1.95;;;;;;;20.33;53.68;98141.13;10496217;28;20052;-44
2022/11/26 20:17:08;;;;;;;4.28;2.08;;;;;;;20.32;53.81;98144.13;10496238;28;20057;-45
2022/11/26 20:22:28;;;;;;;4.22;1.85;;;;;;;20.32;53.94;98138.69;10505309;28;20048;-45
2022/11/26 20:27:48;;;;;;;5.80;2.00;;;;;;;20.31;53.92;98134.41;10495815;28;20061;-47
2022/11/26 20:33:07;;;;;;;3.67;2.03;;;;;;;20.30;54.00;98127.38;10496171;28;20122;-47
2022/11/26 20:38:27;;;;;;;5.07;2.05;;;;;;;20.28;53.99;98124.97;10509398;28;20052;-50
2022/11/26 20:43:46;;;;;;;2.72;1.60;;;;;;;20.28;54.23;98116.03;10502810;28;20056;-50
2022/11/26 20:49:07;;;;;;;3.08;1.88;;;;;;;20.26;54.05;98113.63;10496282;28;20064;-48
2022/11/26 20:54:26;;;;;;;3.55;1.90;;;;;;;20.25;54.11;98106.63;10503399;28;20522;-49
2022/11/26 20:59:49;;;;;;;2.97;1.60;;;;;;;20.25;54.10;98112.03;10503112;28;20052;-47
2022/11/26 21:05:09;;;;;;;3.60;2.20;;;;;;;20.24;54.07;98105.00;10490684;28;20074;-45
2022/11/26 21:10:28;;;;;;;3.20;1.90;;;;;;;20.24;54.36;98101.50;10503412;28;20442;-47
2022/11/26 21:15:48;;;;;;;4.97;2.25;;;;;;;20.23;54.24;98108.00;10515643;28;20048;-49
2022/11/26 21:21:13;;;;;;;3.67;2.17;;;;;;;20.20;54.11;98100.50;10498765;28;20415;-46
2022/11/26 21:26:33;;;;;;;3.72;2.00;;;;;;;20.17;54.08;98098.38;10502198;28;20060;-47
2022/11/26 21:31:52;;;;;;;4.65;1.92;;;;;;;20.16;54.07;98094.88;10502777;28;20522;-46
2022/11/26 21:37:12;;;;;;;3.45;2.15;;;;;;;20.15;54.08;98093.28;10515269;28;20044;-47
2022/11/26 21:42:32;;;;;;;3.03;1.90;;;;;;;20.12;54.10;98091.94;10502076;28;20041;-45
2022/11/26 21:47:51;;;;;;;5.63;2.28;;;;;;;20.12;54.02;98089.25;10501389;28;20064;-48
2022/11/26 21:53:10;;;;;;;2.90;1.77;;;;;;;20.11;54.02;98090.34;10501727;28;20045;-48
2022/11/26 21:58:32;;;;;;;3.92;2.00;;;;;;;20.09;53.97;98095.25;10508480;28;20055;-47
2022/11/26 22:03:53;;;;;;;4.82;2.00;;;;;;;20.08;53.90;98095.53;10542636;28;20048;-49
2022/11/26 22:09:14;;;;;;;3.22;1.98;;;;;;;20.07;53.82;98093.94;10543079;28;20056;-46
2022/11/26 22:14:34;;;;;;;4.70;2.00;;;;;;;20.04;53.89;98089.94;10542720;28;20040;-46
2022/11/26 22:19:53;;;;;;;3.17;1.95;;;;;;;20.04;54.06;98087.22;10534398;28;20125;-48
2022/11/26 22:25:13;;;;;;;3.22;2.15;;;;;;;20.03;53.95;98093.75;10529672;28;20052;-48
2022/11/26 22:30:32;;;;;;;3.72;2.05;;;;;;;20.02;53.97;98096.75;10541880;28;20056;-49
2022/11/26 22:35:52;;;;;;;3.88;2.05;;;;;;;20.00;54.07;98098.94;10542158;28;20051;-49
2022/11/26 22:41:12;;;;;;;2.90;1.80;;;;;;;20.00;54.05;98101.63;10555563;28;20036;-46
2022/11/26 22:46:33;;;;;;;3.05;1.95;;;;;;;19.98;54.05;98095.72;10540955;28;20518;-46
2022/11/26 22:51:52;;;;;;;3.28;1.98;;;;;;;19.97;53.99;98097.59;10541564;28;20429;-49
2022/11/26 22:57:11;;;;;;;3.75;1.90;;;;;;;19.95;54.11;98092.50;10539658;28;20044;-46
2022/11/26 23:02:31;;;;;;;3.22;2.00;;;;;;;19.94;54.07;98096.31;10539933;28;20052;-48
2022/11/26 23:07:50;;;;;;;3.55;1.90;;;;;;;19.92;54.14;98093.09;10537827;28;20132;-46
2022/11/26 23:13:11;;;;;;;2.38;1.70;;;;;;;19.92;54.09;98095.78;10539938;28;20472;-48
2022/11/26 23:18:31;;;;;;;3.72;2.03;;;;;;;19.90;53.87;98103.41;10513976;28;20101;-46
2022/11/26 23:23:51;;;;;;;2.72;1.85;;;;;;;19.89;53.96;98109.09;10540372;28;20052;-49
2022/11/26 23:29:11;;;;;;;3.17;2.10;;;;;;;19.87;53.88;98103.19;10539397;28;20056;-48
2022/11/26 23:34:31;;;;;;;2.65;1.80;;;;;;;19.86;53.89;98102.38;10524806;28;20052;-47
2022/11/26 23:39:50;;;;;;;2.38;1.67;;;;;;;19.84;53.89;98104.59;10528578;28;20051;-48
2022/11/26 23:45:10;;;;;;;2.42;1.90;;;;;;;19.83;53.88;98100.25;10538430;28;20056;-47
2022/11/26 23:50:29;;;;;;;2.55;1.70;;;;;;;19.82;53.81;98095.97;10528588;28;20117;-49
2022/11/26 23:55:49;;;;;;;4.47;1.90;;;;;;;19.81;53.77;98099.75;10539401;28;20044;-50
